sensor_id;sensor_type;location;lat;lon;timestamp;P1;durP1;ratioP1;P2;durP2;ratioP2
84246;SDS011;74385;53.360;6.290;2023-12-14T00:01:11;5.85;;;2.85;;
84246;SDS011;74385;53.360;6.290;2023-12-14T00:03:38;5.93;;;3.65;;
84246;SDS011;74385;53.360;6.290;2023-12-14T00:06:06;5.15;;;2.63;;
84246;SDS011;74385;53.360;6.290;2023-12-14T00:08:32;6.53;;;2.85;;
84246;SDS011;74385;53.360;6.290;2023-12-14T00:11:02;3.80;;;2.55;;
84246;SDS011;74385;53.360;6.290;2023-12-14T00:13:29;4.63;;;2.25;;
84246;SDS011;74385;53.360;6.290;2023-12-14T00:15:55;3.42;;;1.90;;
84246;SDS011;74385;53.360;6.290;2023-12-14T00:18:21;8.50;;;2.35;;
84246;SDS011;74385;53.360;6.290;2023-12-14T00:20:47;6.45;;;2.70;;
84246;SDS011;74385;53.360;6.290;2023-12-14T00:23:13;5.32;;;2.92;;
84246;SDS011;74385;53.360;6.290;2023-12-14T00:25:39;6.47;;;2.88;;
84246;SDS011;74385;53.360;6.290;2023-12-14T00:28:05;7.90;;;2.55;;
84246;SDS011;74385;53.360;6.290;2023-12-14T00:30:31;4.85;;;2.40;;
84246;SDS011;74385;53.360;6.290;2023-12-14T00:32:57;6.70;;;2.95;;
84246;SDS011;74385;53.360;6.290;2023-12-14T00:35:23;6.50;;;3.03;;
84246;SDS011;74385;53.360;6.290;2023-12-14T00:37:49;6.75;;;2.85;;
84246;SDS011;74385;53.360;6.290;2023-12-14T00:40:15;7.18;;;3.30;;
84246;SDS011;74385;53.360;6.290;2023-12-14T00:42:41;5.57;;;3.13;;
84246;SDS011;74385;53.360;6.290;2023-12-14T00:45:08;7.97;;;2.85;;
84246;SDS011;74385;53.360;6.290;2023-12-14T00:47:34;7.90;;;2.95;;
84246;SDS011;74385;53.360;6.290;2023-12-14T00:50:00;5.95;;;3.15;;
84246;SDS011;74385;53.360;6.290;2023-12-14T00:52:26;9.57;;;3.75;;
84246;SDS011;74385;53.360;6.290;2023-12-14T00:54:52;9.57;;;2.90;;
84246;SDS011;74385;53.360;6.290;2023-12-14T00:57:18;10.85;;;3.58;;
84246;SDS011;74385;53.360;6.290;2023-12-14T00:59:44;9.25;;;3.40;;
84246;SDS011;74385;53.360;6.290;2023-12-14T01:02:11;7.30;;;3.55;;
84246;SDS011;74385;53.360;6.290;2023-12-14T01:04:37;10.00;;;3.10;;
84246;SDS011;74385;53.360;6.290;2023-12-14T01:07:03;10.77;;;3.83;;
84246;SDS011;74385;53.360;6.290;2023-12-14T01:09:29;11.15;;;4.10;;
84246;SDS011;74385;53.360;6.290;2023-12-14T01:11:56;6.50;;;3.20;;
84246;SDS011;74385;53.360;6.290;2023-12-14T01:14:22;6.97;;;3.35;;
84246;SDS011;74385;53.360;6.290;2023-12-14T01:16:48;7.72;;;3.47;;
84246;SDS011;74385;53.360;6.290;2023-12-14T01:19:14;7.38;;;3.25;;
84246;SDS011;74385;53.360;6.290;2023-12-14T01:21:40;9.27;;;3.70;;
84246;SDS011;74385;53.360;6.290;2023-12-14T01:24:06;8.07;;;3.65;;
84246;SDS011;74385;53.360;6.290;2023-12-14T01:26:32;8.55;;;3.38;;
84246;SDS011;74385;53.360;6.290;2023-12-14T01:28:58;8.05;;;3.53;;
84246;SDS011;74385;53.360;6.290;2023-12-14T01:31:25;6.72;;;2.83;;
84246;SDS011;74385;53.360;6.290;2023-12-14T01:33:51;6.00;;;3.40;;
84246;SDS011;74385;53.360;6.290;2023-12-14T01:36:21;7.10;;;3.33;;
84246;SDS011;74385;53.360;6.290;2023-12-14T01:38:47;8.45;;;3.75;;
84246;SDS011;74385;53.360;6.290;2023-12-14T01:41:13;7.60;;;3.22;;
84246;SDS011;74385;53.360;6.290;2023-12-14T01:43:39;9.48;;;3.75;;
84246;SDS011;74385;53.360;6.290;2023-12-14T01:46:05;8.88;;;4.10;;
84246;SDS011;74385;53.360;6.290;2023-12-14T01:48:32;6.40;;;3.30;;
84246;SDS011;74385;53.360;6.290;2023-12-14T01:50:58;12.77;;;3.65;;
84246;SDS011;74385;53.360;6.290;2023-12-14T01:53:24;7.20;;;3.00;;
84246;SDS011;74385;53.360;6.290;2023-12-14T01:55:50;9.40;;;3.67;;
84246;SDS011;74385;53.360;6.290;2023-12-14T01:58:16;10.65;;;4.47;;
84246;SDS011;74385;53.360;6.290;2023-12-14T02:03:20;12.90;;;4.93;;
84246;SDS011;74385;53.360;6.290;2023-12-14T02:05:46;7.45;;;4.05;;
84246;SDS011;74385;53.360;6.290;2023-12-14T02:08:13;8.07;;;4.03;;
84246;SDS011;74385;53.360;6.290;2023-12-14T02:10:39;11.05;;;4.60;;
84246;SDS011;74385;53.360;6.290;2023-12-14T02:13:05;11.68;;;4.30;;
84246;SDS011;74385;53.360;6.290;2023-12-14T02:15:32;9.25;;;4.50;;
84246;SDS011;74385;53.360;6.290;2023-12-14T02:17:58;9.60;;;4.53;;
84246;SDS011;74385;53.360;6.290;2023-12-14T02:20:24;17.55;;;4.53;;
84246;SDS011;74385;53.360;6.290;2023-12-14T02:22:51;10.25;;;4.18;;
84246;SDS011;74385;53.360;6.290;2023-12-14T02:25:18;13.25;;;4.28;;
84246;SDS011;74385;53.360;6.290;2023-12-14T02:27:44;12.73;;;4.43;;
84246;SDS011;74385;53.360;6.290;2023-12-14T02:30:10;7.57;;;4.18;;
84246;SDS011;74385;53.360;6.290;2023-12-14T02:32:37;10.40;;;4.30;;
84246;SDS011;74385;53.360;6.290;2023-12-14T02:35:03;10.38;;;4.13;;
84246;SDS011;74385;53.360;6.290;2023-12-14T02:37:30;9.27;;;5.25;;
84246;SDS011;74385;53.360;6.290;2023-12-14T02:39:57;12.35;;;4.88;;
84246;SDS011;74385;53.360;6.290;2023-12-14T02:42:23;10.60;;;3.83;;
84246;SDS011;74385;53.360;6.290;2023-12-14T02:44:49;8.50;;;4.10;;
84246;SDS011;74385;53.360;6.290;2023-12-14T02:47:15;9.07;;;4.03;;
84246;SDS011;74385;53.360;6.290;2023-12-14T02:49:42;10.48;;;4.85;;
84246;SDS011;74385;53.360;6.290;2023-12-14T02:52:08;7.45;;;4.00;;
84246;SDS011;74385;53.360;6.290;2023-12-14T02:54:36;7.93;;;3.60;;
84246;SDS011;74385;53.360;6.290;2023-12-14T02:57:02;10.35;;;4.18;;
84246;SDS011;74385;53.360;6.290;2023-12-14T02:59:28;8.32;;;3.95;;
84246;SDS011;74385;53.360;6.290;2023-12-14T03:01:54;9.93;;;4.40;;
84246;SDS011;74385;53.360;6.290;2023-12-14T03:04:20;10.90;;;4.38;;
84246;SDS011;74385;53.360;6.290;2023-12-14T03:06:46;10.82;;;4.82;;
84246;SDS011;74385;53.360;6.290;2023-12-14T03:09:12;9.60;;;4.35;;
84246;SDS011;74385;53.360;6.290;2023-12-14T03:11:38;13.63;;;4.45;;
84246;SDS011;74385;53.360;6.290;2023-12-14T03:14:04;10.93;;;3.80;;
84246;SDS011;74385;53.360;6.290;2023-12-14T03:16:30;8.50;;;4.65;;
84246;SDS011;74385;53.360;6.290;2023-12-14T03:18:56;10.27;;;4.28;;
84246;SDS011;74385;53.360;6.290;2023-12-14T03:21:23;10.35;;;4.00;;
84246;SDS011;74385;53.360;6.290;2023-12-14T03:23:49;12.88;;;4.05;;
84246;SDS011;74385;53.360;6.290;2023-12-14T03:26:15;8.18;;;4.45;;
84246;SDS011;74385;53.360;6.290;2023-12-14T03:28:41;11.13;;;4.65;;
84246;SDS011;74385;53.360;6.290;2023-12-14T03:31:09;7.78;;;4.13;;
84246;SDS011;74385;53.360;6.290;2023-12-14T03:33:36;11.73;;;4.82;;
84246;SDS011;74385;53.360;6.290;2023-12-14T03:36:02;9.20;;;3.85;;
84246;SDS011;74385;53.360;6.290;2023-12-14T03:38:29;8.07;;;3.85;;
84246;SDS011;74385;53.360;6.290;2023-12-14T03:40:55;9.35;;;3.70;;
84246;SDS011;74385;53.360;6.290;2023-12-14T03:43:21;7.70;;;4.15;;
84246;SDS011;74385;53.360;6.290;2023-12-14T03:45:47;10.50;;;4.45;;
84246;SDS011;74385;53.360;6.290;2023-12-14T03:48:13;10.63;;;4.70;;
84246;SDS011;74385;53.360;6.290;2023-12-14T03:50:40;9.43;;;4.10;;
84246;SDS011;74385;53.360;6.290;2023-12-14T03:53:07;9.40;;;4.15;;
84246;SDS011;74385;53.360;6.290;2023-12-14T03:55:33;12.70;;;4.78;;
84246;SDS011;74385;53.360;6.290;2023-12-14T03:57:59;9.38;;;4.57;;
84246;SDS011;74385;53.360;6.290;2023-12-14T04:00:26;12.85;;;4.50;;
84246;SDS011;74385;53.360;6.290;2023-12-14T04:02:52;12.43;;;4.93;;
84246;SDS011;74385;53.360;6.290;2023-12-14T04:05:18;9.95;;;4.82;;
84246;SDS011;74385;53.360;6.290;2023-12-14T04:07:44;8.05;;;4.85;;
84246;SDS011;74385;53.360;6.290;2023-12-14T04:10:10;10.52;;;5.28;;
84246;SDS011;74385;53.360;6.290;2023-12-14T04:12:37;8.57;;;4.50;;
84246;SDS011;74385;53.360;6.290;2023-12-14T04:15:06;9.68;;;4.70;;
84246;SDS011;74385;53.360;6.290;2023-12-14T04:17:33;10.77;;;4.70;;
84246;SDS011;74385;53.360;6.290;2023-12-14T04:19:59;10.65;;;4.53;;
84246;SDS011;74385;53.360;6.290;2023-12-14T04:22:25;9.27;;;5.32;;
84246;SDS011;74385;53.360;6.290;2023-12-14T04:24:51;8.65;;;4.88;;
84246;SDS011;74385;53.360;6.290;2023-12-14T04:27:18;11.70;;;5.47;;
84246;SDS011;74385;53.360;6.290;2023-12-14T04:29:44;8.48;;;4.38;;
84246;SDS011;74385;53.360;6.290;2023-12-14T04:32:10;15.05;;;5.38;;
84246;SDS011;74385;53.360;6.290;2023-12-14T04:34:36;11.77;;;5.13;;
84246;SDS011;74385;53.360;6.290;2023-12-14T04:37:02;7.25;;;4.80;;
84246;SDS011;74385;53.360;6.290;2023-12-14T04:39:28;12.05;;;5.10;;
84246;SDS011;74385;53.360;6.290;2023-12-14T04:41:55;12.73;;;4.78;;
84246;SDS011;74385;53.360;6.290;2023-12-14T04:44:21;9.13;;;4.85;;
84246;SDS011;74385;53.360;6.290;2023-12-14T04:46:47;10.43;;;4.82;;
84246;SDS011;74385;53.360;6.290;2023-12-14T04:49:14;7.63;;;4.65;;
84246;SDS011;74385;53.360;6.290;2023-12-14T04:51:40;7.30;;;4.25;;
84246;SDS011;74385;53.360;6.290;2023-12-14T04:54:06;8.82;;;5.18;;
84246;SDS011;74385;53.360;6.290;2023-12-14T04:56:32;13.95;;;5.25;;
84246;SDS011;74385;53.360;6.290;2023-12-14T04:58:58;8.60;;;4.45;;
84246;SDS011;74385;53.360;6.290;2023-12-14T05:01:24;9.23;;;4.22;;
84246;SDS011;74385;53.360;6.290;2023-12-14T05:03:53;8.10;;;4.20;;
84246;SDS011;74385;53.360;6.290;2023-12-14T05:06:20;9.40;;;3.88;;
84246;SDS011;74385;53.360;6.290;2023-12-14T05:08:46;10.05;;;4.18;;
84246;SDS011;74385;53.360;6.290;2023-12-14T05:11:12;10.50;;;4.45;;
84246;SDS011;74385;53.360;6.290;2023-12-14T05:13:39;12.88;;;4.80;;
84246;SDS011;74385;53.360;6.290;2023-12-14T05:16:05;9.55;;;4.47;;
84246;SDS011;74385;53.360;6.290;2023-12-14T05:18:31;11.90;;;5.25;;
84246;SDS011;74385;53.360;6.290;2023-12-14T05:20:57;8.43;;;4.20;;
84246;SDS011;74385;53.360;6.290;2023-12-14T05:23:23;14.55;;;4.78;;
84246;SDS011;74385;53.360;6.290;2023-12-14T05:25:49;13.40;;;4.53;;
84246;SDS011;74385;53.360;6.290;2023-12-14T05:28:16;12.30;;;5.00;;
84246;SDS011;74385;53.360;6.290;2023-12-14T05:30:42;7.88;;;4.47;;
84246;SDS011;74385;53.360;6.290;2023-12-14T05:33:08;10.85;;;4.65;;
84246;SDS011;74385;53.360;6.290;2023-12-14T05:35:34;11.98;;;5.90;;
84246;SDS011;74385;53.360;6.290;2023-12-14T05:38:00;9.93;;;5.05;;
84246;SDS011;74385;53.360;6.290;2023-12-14T05:40:26;9.70;;;4.93;;
84246;SDS011;74385;53.360;6.290;2023-12-14T05:42:52;9.43;;;4.82;;
84246;SDS011;74385;53.360;6.290;2023-12-14T05:45:18;9.32;;;4.55;;
84246;SDS011;74385;53.360;6.290;2023-12-14T05:47:44;13.65;;;4.95;;
84246;SDS011;74385;53.360;6.290;2023-12-14T05:50:10;11.23;;;4.82;;
84246;SDS011;74385;53.360;6.290;2023-12-14T05:52:37;9.65;;;5.03;;
84246;SDS011;74385;53.360;6.290;2023-12-14T05:55:07;11.07;;;4.30;;
84246;SDS011;74385;53.360;6.290;2023-12-14T05:57:33;9.88;;;4.32;;
84246;SDS011;74385;53.360;6.290;2023-12-14T05:59:59;14.82;;;4.78;;
84246;SDS011;74385;53.360;6.290;2023-12-14T06:02:25;10.55;;;4.20;;
84246;SDS011;74385;53.360;6.290;2023-12-14T06:04:51;10.00;;;5.07;;
84246;SDS011;74385;53.360;6.290;2023-12-14T06:07:18;14.68;;;5.85;;
84246;SDS011;74385;53.360;6.290;2023-12-14T06:09:44;12.05;;;4.82;;
84246;SDS011;74385;53.360;6.290;2023-12-14T06:12:10;9.10;;;4.60;;
84246;SDS011;74385;53.360;6.290;2023-12-14T06:14:36;11.25;;;4.93;;
84246;SDS011;74385;53.360;6.290;2023-12-14T06:17:02;10.35;;;5.00;;
84246;SDS011;74385;53.360;6.290;2023-12-14T06:19:28;11.57;;;4.72;;
84246;SDS011;74385;53.360;6.290;2023-12-14T06:21:54;15.18;;;5.15;;
84246;SDS011;74385;53.360;6.290;2023-12-14T06:24:20;12.15;;;4.70;;
84246;SDS011;74385;53.360;6.290;2023-12-14T06:26:47;11.13;;;5.32;;
84246;SDS011;74385;53.360;6.290;2023-12-14T06:29:13;11.93;;;4.72;;
84246;SDS011;74385;53.360;6.290;2023-12-14T06:31:39;9.43;;;4.40;;
84246;SDS011;74385;53.360;6.290;2023-12-14T06:34:05;10.90;;;5.32;;
84246;SDS011;74385;53.360;6.290;2023-12-14T06:36:31;16.27;;;6.03;;
84246;SDS011;74385;53.360;6.290;2023-12-14T06:38:58;15.85;;;8.35;;
84246;SDS011;74385;53.360;6.290;2023-12-14T06:41:25;20.95;;;9.98;;
84246;SDS011;74385;53.360;6.290;2023-12-14T06:43:51;20.17;;;10.68;;
84246;SDS011;74385;53.360;6.290;2023-12-14T06:46:17;27.88;;;14.82;;
84246;SDS011;74385;53.360;6.290;2023-12-14T06:48:44;18.45;;;11.23;;
84246;SDS011;74385;53.360;6.290;2023-12-14T06:51:10;8.88;;;5.13;;
84246;SDS011;74385;53.360;6.290;2023-12-14T06:53:38;17.27;;;5.38;;
84246;SDS011;74385;53.360;6.290;2023-12-14T06:56:05;12.77;;;5.68;;
84246;SDS011;74385;53.360;6.290;2023-12-14T06:58:34;14.02;;;6.93;;
84246;SDS011;74385;53.360;6.290;2023-12-14T07:01:00;12.07;;;5.72;;
84246;SDS011;74385;53.360;6.290;2023-12-14T07:03:26;10.95;;;5.70;;
84246;SDS011;74385;53.360;6.290;2023-12-14T07:05:52;13.63;;;6.00;;
84246;SDS011;74385;53.360;6.290;2023-12-14T07:08:18;9.27;;;4.72;;
84246;SDS011;74385;53.360;6.290;2023-12-14T07:10:44;11.18;;;5.25;;
84246;SDS011;74385;53.360;6.290;2023-12-14T07:13:10;9.18;;;4.85;;
84246;SDS011;74385;53.360;6.290;2023-12-14T07:15:37;13.20;;;4.93;;
84246;SDS011;74385;53.360;6.290;2023-12-14T07:18:03;9.55;;;5.05;;
84246;SDS011;74385;53.360;6.290;2023-12-14T07:20:29;10.15;;;5.65;;
84246;SDS011;74385;53.360;6.290;2023-12-14T07:22:55;9.40;;;4.68;;
84246;SDS011;74385;53.360;6.290;2023-12-14T07:25:21;10.52;;;5.28;;
84246;SDS011;74385;53.360;6.290;2023-12-14T07:27:47;17.38;;;5.65;;
84246;SDS011;74385;53.360;6.290;2023-12-14T07:30:13;12.43;;;5.35;;
84246;SDS011;74385;53.360;6.290;2023-12-14T07:32:39;7.90;;;4.07;;
84246;SDS011;74385;53.360;6.290;2023-12-14T07:35:05;8.50;;;4.82;;
84246;SDS011;74385;53.360;6.290;2023-12-14T07:37:32;11.38;;;5.00;;
84246;SDS011;74385;53.360;6.290;2023-12-14T07:39:58;14.00;;;5.78;;
84246;SDS011;74385;53.360;6.290;2023-12-14T07:42:24;15.77;;;7.30;;
84246;SDS011;74385;53.360;6.290;2023-12-14T07:44:50;18.73;;;7.68;;
84246;SDS011;74385;53.360;6.290;2023-12-14T07:47:17;13.27;;;6.95;;
84246;SDS011;74385;53.360;6.290;2023-12-14T07:49:43;14.30;;;6.35;;
84246;SDS011;74385;53.360;6.290;2023-12-14T07:52:10;9.77;;;4.30;;
84246;SDS011;74385;53.360;6.290;2023-12-14T07:54:38;11.40;;;4.88;;
84246;SDS011;74385;53.360;6.290;2023-12-14T07:57:05;13.23;;;5.07;;
84246;SDS011;74385;53.360;6.290;2023-12-14T07:59:31;11.10;;;5.47;;
84246;SDS011;74385;53.360;6.290;2023-12-14T08:01:57;10.52;;;5.10;;
84246;SDS011;74385;53.360;6.290;2023-12-14T08:04:23;10.35;;;5.43;;
84246;SDS011;74385;53.360;6.290;2023-12-14T08:06:50;11.60;;;5.82;;
84246;SDS011;74385;53.360;6.290;2023-12-14T08:09:16;14.77;;;5.55;;
84246;SDS011;74385;53.360;6.290;2023-12-14T08:11:42;13.60;;;4.53;;
84246;SDS011;74385;53.360;6.290;2023-12-14T08:14:08;11.60;;;4.85;;
84246;SDS011;74385;53.360;6.290;2023-12-14T08:16:34;16.98;;;5.32;;
84246;SDS011;74385;53.360;6.290;2023-12-14T08:19:01;9.48;;;5.15;;
84246;SDS011;74385;53.360;6.290;2023-12-14T08:21:27;8.55;;;4.50;;
84246;SDS011;74385;53.360;6.290;2023-12-14T08:23:53;9.82;;;5.05;;
84246;SDS011;74385;53.360;6.290;2023-12-14T08:26:19;10.90;;;4.97;;
84246;SDS011;74385;53.360;6.290;2023-12-14T08:28:45;10.38;;;4.68;;
84246;SDS011;74385;53.360;6.290;2023-12-14T08:31:12;11.45;;;5.18;;
84246;SDS011;74385;53.360;6.290;2023-12-14T08:33:40;10.02;;;4.65;;
84246;SDS011;74385;53.360;6.290;2023-12-14T08:36:07;13.43;;;5.65;;
84246;SDS011;74385;53.360;6.290;2023-12-14T08:38:33;10.85;;;5.25;;
84246;SDS011;74385;53.360;6.290;2023-12-14T08:41:00;13.93;;;5.63;;
84246;SDS011;74385;53.360;6.290;2023-12-14T08:43:26;12.23;;;5.80;;
84246;SDS011;74385;53.360;6.290;2023-12-14T08:45:52;13.43;;;5.57;;
84246;SDS011;74385;53.360;6.290;2023-12-14T08:48:18;14.25;;;5.55;;
84246;SDS011;74385;53.360;6.290;2023-12-14T08:50:44;13.80;;;6.10;;
84246;SDS011;74385;53.360;6.290;2023-12-14T08:53:10;14.48;;;5.70;;
84246;SDS011;74385;53.360;6.290;2023-12-14T08:55:36;16.27;;;5.57;;
84246;SDS011;74385;53.360;6.290;2023-12-14T08:58:03;13.88;;;5.70;;
84246;SDS011;74385;53.360;6.290;2023-12-14T09:00:29;16.90;;;5.80;;
84246;SDS011;74385;53.360;6.290;2023-12-14T09:02:55;12.60;;;5.93;;
84246;SDS011;74385;53.360;6.290;2023-12-14T09:05:21;12.38;;;6.15;;
84246;SDS011;74385;53.360;6.290;2023-12-14T09:07:47;14.68;;;5.82;;
84246;SDS011;74385;53.360;6.290;2023-12-14T09:10:13;13.82;;;5.22;;
84246;SDS011;74385;53.360;6.290;2023-12-14T09:24:23;15.85;;;6.65;;
84246;SDS011;74385;53.360;6.290;2023-12-14T09:41:34;19.83;;;6.80;;
84246;SDS011;74385;53.360;6.290;2023-12-14T09:44:00;14.45;;;5.65;;
84246;SDS011;74385;53.360;6.290;2023-12-14T09:46:28;19.52;;;6.82;;
84246;SDS011;74385;53.360;6.290;2023-12-14T09:48:55;13.15;;;6.07;;
84246;SDS011;74385;53.360;6.290;2023-12-14T09:51:21;15.15;;;6.05;;
84246;SDS011;74385;53.360;6.290;2023-12-14T09:53:48;10.65;;;5.22;;
84246;SDS011;74385;53.360;6.290;2023-12-14T09:56:17;15.40;;;6.05;;
84246;SDS011;74385;53.360;6.290;2023-12-14T09:58:44;16.92;;;6.80;;
84246;SDS011;74385;53.360;6.290;2023-12-14T10:01:22;14.10;;;6.70;;
84246;SDS011;74385;53.360;6.290;2023-12-14T10:03:49;13.32;;;6.65;;
84246;SDS011;74385;53.360;6.290;2023-12-14T10:06:17;12.98;;;5.47;;
84246;SDS011;74385;53.360;6.290;2023-12-14T10:08:53;14.73;;;6.88;;
84246;SDS011;74385;53.360;6.290;2023-12-14T10:11:19;14.75;;;6.57;;
84246;SDS011;74385;53.360;6.290;2023-12-14T10:13:46;13.65;;;6.75;;
84246;SDS011;74385;53.360;6.290;2023-12-14T10:20:47;15.70;;;6.47;;
84246;SDS011;74385;53.360;6.290;2023-12-14T10:23:13;14.77;;;6.60;;
84246;SDS011;74385;53.360;6.290;2023-12-14T10:25:39;17.23;;;6.57;;
84246;SDS011;74385;53.360;6.290;2023-12-14T10:36:35;14.30;;;7.25;;
84246;SDS011;74385;53.360;6.290;2023-12-14T10:39:01;14.40;;;7.20;;
84246;SDS011;74385;53.360;6.290;2023-12-14T10:41:28;13.63;;;6.78;;
84246;SDS011;74385;53.360;6.290;2023-12-14T10:43:57;15.27;;;6.43;;
84246;SDS011;74385;53.360;6.290;2023-12-14T10:46:24;14.93;;;6.88;;
84246;SDS011;74385;53.360;6.290;2023-12-14T10:48:51;13.82;;;5.97;;
84246;SDS011;74385;53.360;6.290;2023-12-14T10:51:17;11.57;;;5.72;;
84246;SDS011;74385;53.360;6.290;2023-12-14T10:53:44;17.48;;;6.75;;
84246;SDS011;74385;53.360;6.290;2023-12-14T10:56:14;12.38;;;6.13;;
84246;SDS011;74385;53.360;6.290;2023-12-14T10:58:50;11.30;;;6.18;;
84246;SDS011;74385;53.360;6.290;2023-12-14T11:01:17;12.23;;;7.30;;
84246;SDS011;74385;53.360;6.290;2023-12-14T11:03:44;13.50;;;6.93;;
84246;SDS011;74385;53.360;6.290;2023-12-14T11:06:20;13.13;;;6.65;;
84246;SDS011;74385;53.360;6.290;2023-12-14T11:08:52;15.07;;;6.18;;
84246;SDS011;74385;53.360;6.290;2023-12-14T11:11:20;10.93;;;4.90;;
84246;SDS011;74385;53.360;6.290;2023-12-14T11:13:47;11.48;;;5.85;;
84246;SDS011;74385;53.360;6.290;2023-12-14T11:16:17;12.93;;;6.03;;
84246;SDS011;74385;53.360;6.290;2023-12-14T11:18:45;12.85;;;5.53;;
84246;SDS011;74385;53.360;6.290;2023-12-14T11:21:11;14.60;;;6.30;;
84246;SDS011;74385;53.360;6.290;2023-12-14T11:23:44;15.50;;;6.03;;
84246;SDS011;74385;53.360;6.290;2023-12-14T11:26:10;12.43;;;6.65;;
84246;SDS011;74385;53.360;6.290;2023-12-14T11:28:37;11.90;;;5.95;;
84246;SDS011;74385;53.360;6.290;2023-12-14T11:31:04;11.38;;;5.75;;
84246;SDS011;74385;53.360;6.290;2023-12-14T11:33:34;17.35;;;6.50;;
84246;SDS011;74385;53.360;6.290;2023-12-14T11:36:01;11.82;;;5.38;;
84246;SDS011;74385;53.360;6.290;2023-12-14T11:38:31;12.40;;;6.50;;
84246;SDS011;74385;53.360;6.290;2023-12-14T11:40:58;13.40;;;5.00;;
84246;SDS011;74385;53.360;6.290;2023-12-14T11:43:24;16.48;;;6.13;;
84246;SDS011;74385;53.360;6.290;2023-12-14T11:45:51;14.45;;;6.43;;
84246;SDS011;74385;53.360;6.290;2023-12-14T11:48:18;14.50;;;6.45;;
84246;SDS011;74385;53.360;6.290;2023-12-14T11:50:45;16.65;;;7.25;;
84246;SDS011;74385;53.360;6.290;2023-12-14T11:53:12;14.85;;;6.75;;
84246;SDS011;74385;53.360;6.290;2023-12-14T11:55:39;12.68;;;6.43;;
84246;SDS011;74385;53.360;6.290;2023-12-14T11:58:06;12.50;;;7.13;;
84246;SDS011;74385;53.360;6.290;2023-12-14T12:00:32;12.80;;;6.63;;
84246;SDS011;74385;53.360;6.290;2023-12-14T12:05:43;16.13;;;7.05;;
84246;SDS011;74385;53.360;6.290;2023-12-14T12:08:11;13.27;;;6.25;;
84246;SDS011;74385;53.360;6.290;2023-12-14T12:10:38;14.25;;;6.30;;
84246;SDS011;74385;53.360;6.290;2023-12-14T12:13:05;13.18;;;6.13;;
84246;SDS011;74385;53.360;6.290;2023-12-14T12:15:32;11.32;;;6.03;;
84246;SDS011;74385;53.360;6.290;2023-12-14T12:18:02;14.13;;;6.57;;
84246;SDS011;74385;53.360;6.290;2023-12-14T12:20:28;13.73;;;5.80;;
84246;SDS011;74385;53.360;6.290;2023-12-14T12:22:54;13.00;;;5.88;;
84246;SDS011;74385;53.360;6.290;2023-12-14T12:25:20;9.85;;;5.82;;
84246;SDS011;74385;53.360;6.290;2023-12-14T12:27:47;11.35;;;5.38;;
84246;SDS011;74385;53.360;6.290;2023-12-14T12:30:14;11.27;;;5.45;;
84246;SDS011;74385;53.360;6.290;2023-12-14T12:32:40;10.68;;;5.68;;
84246;SDS011;74385;53.360;6.290;2023-12-14T12:35:07;11.32;;;5.57;;
84246;SDS011;74385;53.360;6.290;2023-12-14T12:37:33;9.98;;;5.07;;
84246;SDS011;74385;53.360;6.290;2023-12-14T12:39:59;11.48;;;5.63;;
84246;SDS011;74385;53.360;6.290;2023-12-14T12:42:25;13.75;;;6.40;;
84246;SDS011;74385;53.360;6.290;2023-12-14T12:44:52;12.20;;;6.28;;
84246;SDS011;74385;53.360;6.290;2023-12-14T12:47:18;12.48;;;6.07;;
84246;SDS011;74385;53.360;6.290;2023-12-14T12:49:44;13.40;;;6.25;;
84246;SDS011;74385;53.360;6.290;2023-12-14T12:52:10;11.38;;;5.25;;
84246;SDS011;74385;53.360;6.290;2023-12-14T12:54:36;12.40;;;5.85;;
84246;SDS011;74385;53.360;6.290;2023-12-14T12:57:02;12.07;;;5.40;;
84246;SDS011;74385;53.360;6.290;2023-12-14T12:59:28;10.93;;;6.35;;
84246;SDS011;74385;53.360;6.290;2023-12-14T13:01:54;12.90;;;6.35;;
84246;SDS011;74385;53.360;6.290;2023-12-14T13:04:21;11.13;;;6.00;;
84246;SDS011;74385;53.360;6.290;2023-12-14T13:06:47;11.32;;;5.85;;
84246;SDS011;74385;53.360;6.290;2023-12-14T13:09:14;11.65;;;6.05;;
84246;SDS011;74385;53.360;6.290;2023-12-14T13:11:41;14.95;;;6.47;;
84246;SDS011;74385;53.360;6.290;2023-12-14T13:14:08;11.05;;;6.47;;
84246;SDS011;74385;53.360;6.290;2023-12-14T13:16:35;10.65;;;5.47;;
84246;SDS011;74385;53.360;6.290;2023-12-14T13:19:01;12.55;;;6.00;;
84246;SDS011;74385;53.360;6.290;2023-12-14T13:21:29;14.48;;;6.75;;
84246;SDS011;74385;53.360;6.290;2023-12-14T13:23:55;10.57;;;6.32;;
84246;SDS011;74385;53.360;6.290;2023-12-14T13:26:24;11.20;;;6.07;;
84246;SDS011;74385;53.360;6.290;2023-12-14T13:28:53;14.77;;;7.43;;
84246;SDS011;74385;53.360;6.290;2023-12-14T13:31:19;10.65;;;5.53;;
84246;SDS011;74385;53.360;6.290;2023-12-14T13:33:45;13.18;;;6.78;;
84246;SDS011;74385;53.360;6.290;2023-12-14T13:36:12;12.27;;;5.93;;
84246;SDS011;74385;53.360;6.290;2023-12-14T13:38:39;12.70;;;6.22;;
84246;SDS011;74385;53.360;6.290;2023-12-14T13:41:06;13.02;;;6.68;;
84246;SDS011;74385;53.360;6.290;2023-12-14T13:43:32;11.02;;;5.40;;
84246;SDS011;74385;53.360;6.290;2023-12-14T13:45:58;13.13;;;5.45;;
84246;SDS011;74385;53.360;6.290;2023-12-14T13:48:25;10.93;;;4.95;;
84246;SDS011;74385;53.360;6.290;2023-12-14T13:50:51;11.25;;;5.72;;
84246;SDS011;74385;53.360;6.290;2023-12-14T13:53:17;12.93;;;5.57;;
84246;SDS011;74385;53.360;6.290;2023-12-14T13:55:43;10.18;;;5.93;;
84246;SDS011;74385;53.360;6.290;2023-12-14T13:58:10;11.23;;;6.03;;
84246;SDS011;74385;53.360;6.290;2023-12-14T14:00:36;15.57;;;6.38;;
84246;SDS011;74385;53.360;6.290;2023-12-14T14:03:03;10.70;;;5.55;;
84246;SDS011;74385;53.360;6.290;2023-12-14T14:05:30;12.27;;;6.13;;
84246;SDS011;74385;53.360;6.290;2023-12-14T14:07:56;11.32;;;6.35;;
84246;SDS011;74385;53.360;6.290;2023-12-14T14:10:22;12.07;;;6.18;;
84246;SDS011;74385;53.360;6.290;2023-12-14T14:12:48;11.45;;;6.03;;
84246;SDS011;74385;53.360;6.290;2023-12-14T14:15:15;9.82;;;6.07;;
84246;SDS011;74385;53.360;6.290;2023-12-14T14:17:41;9.32;;;6.00;;
84246;SDS011;74385;53.360;6.290;2023-12-14T14:20:07;9.68;;;5.80;;
84246;SDS011;74385;53.360;6.290;2023-12-14T14:22:35;9.98;;;5.88;;
84246;SDS011;74385;53.360;6.290;2023-12-14T14:25:03;11.73;;;6.25;;
84246;SDS011;74385;53.360;6.290;2023-12-14T14:27:31;11.70;;;5.80;;
84246;SDS011;74385;53.360;6.290;2023-12-14T14:30:03;9.55;;;5.45;;
84246;SDS011;74385;53.360;6.290;2023-12-14T14:32:29;12.48;;;5.53;;
84246;SDS011;74385;53.360;6.290;2023-12-14T14:35:00;10.23;;;6.53;;
84246;SDS011;74385;53.360;6.290;2023-12-14T14:37:26;14.45;;;6.07;;
84246;SDS011;74385;53.360;6.290;2023-12-14T14:39:52;11.55;;;5.72;;
84246;SDS011;74385;53.360;6.290;2023-12-14T14:42:18;12.18;;;5.40;;
84246;SDS011;74385;53.360;6.290;2023-12-14T14:44:45;11.18;;;5.20;;
84246;SDS011;74385;53.360;6.290;2023-12-14T14:47:11;12.73;;;5.82;;
84246;SDS011;74385;53.360;6.290;2023-12-14T14:49:38;10.50;;;5.68;;
84246;SDS011;74385;53.360;6.290;2023-12-14T14:52:04;10.90;;;5.75;;
84246;SDS011;74385;53.360;6.290;2023-12-14T14:54:30;11.88;;;6.13;;
84246;SDS011;74385;53.360;6.290;2023-12-14T14:56:56;9.85;;;5.53;;
84246;SDS011;74385;53.360;6.290;2023-12-14T14:59:22;10.52;;;6.57;;
84246;SDS011;74385;53.360;6.290;2023-12-14T15:01:48;12.07;;;6.13;;
84246;SDS011;74385;53.360;6.290;2023-12-14T15:04:15;11.20;;;5.57;;
84246;SDS011;74385;53.360;6.290;2023-12-14T15:06:42;15.55;;;6.63;;
84246;SDS011;74385;53.360;6.290;2023-12-14T15:09:08;13.68;;;6.53;;
84246;SDS011;74385;53.360;6.290;2023-12-14T15:11:34;11.02;;;6.32;;
84246;SDS011;74385;53.360;6.290;2023-12-14T15:14:00;9.93;;;5.70;;
84246;SDS011;74385;53.360;6.290;2023-12-14T15:16:26;13.27;;;6.30;;
84246;SDS011;74385;53.360;6.290;2023-12-14T15:18:52;10.93;;;5.38;;